| time (UTC) | temp C | wind direction | speed KPH | gust KPH | rain 1hr cm | rain 24hr cm | rain mn cm | humidity % | barometer mb |
| 20260506014547 | 9 | 308 | 1.6 | 4.8 | 0.00 | 0.00 | 0.00 | 50 | 1009.3 |
| 20260506013046 | 9 | 321 | 0.0 | 1.6 | 0.00 | 0.00 | 0.00 | 51 | 1009.0 |
| 20260506011546 | 9 | 0 | 0.0 | 0.0 | 0.00 | 0.00 | 0.00 | 51 | 1008.9 |
| 20260506010045 | 10 | 0 | 0.0 | 0.0 | 0.00 | 0.00 | 0.00 | 49 | 1008.8 |
| 20260506004541 | 10 | 0 | 0.0 | 1.6 | 0.00 | 0.00 | 0.00 | 48 | 1008.6 |
| 20260506003048 | 11 | 0 | 0.0 | 1.6 | 0.00 | 0.00 | 0.00 | 45 | 1008.5 |
| 20260506001547 | 11 | 330 | 1.6 | 3.2 | 0.00 | 0.00 | 0.00 | 43 | 1008.6 |
| 20260506000047 | 12 | 330 | 1.6 | 6.4 | 0.00 | 0.00 | 0.00 | 42 | 1008.5 |
| 20260505234555 | 11 | 325 | 4.8 | 11.3 | 0.00 | 0.00 | 0.00 | 41 | 1008.4 |
| 20260505233046 | 12 | 325 | 9.7 | 19.3 | 0.00 | 0.00 | 0.00 | 37 | 1008.6 |
| 20260505231548 | 12 | 313 | 12.9 | 19.3 | 0.00 | 0.00 | 0.00 | 39 | 1008.6 |
| 20260505230048 | 12 | 338 | 6.4 | 14.5 | 0.00 | 0.00 | 0.00 | 41 | 1008.6 |
| 20260505224547 | 12 | 321 | 3.2 | 9.7 | 0.00 | 0.00 | 0.00 | 38 | 1008.8 |
| 20260505223122 | 12 | 339 | 14.5 | 19.3 | 0.00 | 0.00 | 0.00 | 37 | 1008.9 |
| 20260505221549 | 13 | 300 | 3.2 | 9.7 | 0.00 | 0.00 | 0.00 | 40 | 1008.8 |
| 20260505220045 | 13 | 323 | 4.8 | 9.7 | 0.00 | 0.00 | 0.00 | 39 | 1008.8 |
| 20260505214553 | 12 | 319 | 9.7 | 17.7 | 0.00 | 0.00 | 0.00 | 37 | 1008.9 |
| 20260505213048 | 13 | 314 | 6.4 | 19.3 | 0.00 | 0.00 | 0.00 | 37 | 1008.8 |
| 20260505211544 | 13 | 311 | 8.0 | 17.7 | 0.00 | 0.00 | 0.00 | 37 | 1008.8 |
| 20260505210046 | 13 | 346 | 9.7 | 20.9 | 0.00 | 0.00 | 0.00 | 37 | 1008.9 |
| 20260505204549 | 13 | 315 | 12.9 | 20.9 | 0.00 | 0.00 | 0.00 | 36 | 1008.8 |
| 20260505203050 | 12 | 318 | 4.8 | 11.3 | 0.00 | 0.00 | 0.00 | 38 | 1009.0 |
| 20260505201551 | 12 | 315 | 14.5 | 25.7 | 0.00 | 0.00 | 0.00 | 34 | 1009.2 |
| 20260505200050 | 13 | 345 | 8.0 | 25.7 | 0.00 | 0.00 | 0.00 | 33 | 1009.0 |
| 20260505194605 | 13 | 325 | 3.2 | 19.3 | 0.00 | 0.00 | 0.00 | 35 | 1009.1 |
| 20260505193043 | 13 | 324 | 8.0 | 20.9 | 0.00 | 0.00 | 0.00 | 33 | 1009.2 |
| 20260505191546 | 13 | 323 | 14.5 | 25.7 | 0.00 | 0.00 | 0.00 | 32 | 1009.3 |
| 20260505190045 | 13 | 348 | 8.0 | 20.9 | 0.00 | 0.00 | 0.00 | 36 | 1009.5 |
| 20260505184541 | 13 | 14 | 11.3 | 20.9 | 0.00 | 0.00 | 0.00 | 35 | 1009.3 |
| 20260505183047 | 13 | 322 | 12.9 | 19.3 | 0.00 | 0.00 | 0.00 | 33 | 1009.4 |
| 20260505181549 | 13 | 333 | 11.3 | 22.5 | 0.00 | 0.00 | 0.00 | 30 | 1009.2 |
| 20260505180044 | 13 | 204 | 11.3 | 20.9 | 0.00 | 0.00 | 0.00 | 31 | 1009.2 |
| 20260505174556 | 13 | 317 | 9.7 | 19.3 | 0.00 | 0.00 | 0.00 | 34 | 1008.9 |
| 20260505173048 | 12 | 318 | 9.7 | 17.7 | 0.00 | 0.00 | 0.00 | 37 | 1008.9 |
| 20260505171551 | 12 | 346 | 12.9 | 20.9 | 0.00 | 0.00 | 0.00 | 35 | 1008.9 |
| 20260505170047 | 12 | 314 | 14.5 | 20.9 | 0.00 | 0.00 | 0.00 | 33 | 1009.1 |
| 20260505164610 | 12 | 327 | 9.7 | 17.7 | 0.00 | 0.00 | 0.00 | 37 | 1009.0 |
| 20260505163051 | 11 | 321 | 4.8 | 17.7 | 0.00 | 0.00 | 0.00 | 41 | 1008.7 |
| 20260505161545 | 11 | 326 | 14.5 | 24.1 | 0.00 | 0.00 | 0.00 | 37 | 1008.9 |
| 20260505153047 | 11 | 307 | 6.4 | 12.9 | 0.00 | 0.00 | 0.00 | 41 | 1008.7 |
| 20260505151546 | 10 | 323 | 8.0 | 20.9 | 0.00 | 0.00 | 0.00 | 41 | 1008.9 |
| 20260505130107 | 8 | 335 | 3.2 | 6.4 | 0.00 | 0.00 | 0.00 | 50 | 1009.0 |
| 20260505124553 | 8 | 329 | 3.2 | 6.4 | 0.00 | 0.00 | 0.00 | 53 | 1008.7 |
| 20260505123047 | 8 | 317 | 1.6 | 3.2 | 0.00 | 0.00 | 0.00 | 55 | 1008.9 |
| 20260505121545 | 7 | 327 | 0.0 | 1.6 | 0.00 | 0.00 | 0.00 | 59 | 1009.1 |
| 20260505120105 | 7 | 0 | 0.0 | 1.6 | 0.00 | 0.00 | 0.00 | 61 | 1008.8 |
| 20260505114547 | 7 | 327 | 1.6 | 3.2 | 0.00 | 0.00 | 0.00 | 60 | 1009.0 |
| 20260505113052 | 7 | 0 | 1.6 | 6.4 | 0.00 | 0.00 | 0.00 | 58 | 1008.0 |
| 20260505111552 | 7 | 322 | 0.0 | 3.2 | 0.00 | 0.00 | 0.00 | 59 | 1008.1 |
| 20260505101547 | 8 | 0 | 1.6 | 6.4 | 0.00 | 0.00 | 0.00 | 54 | 1006.9 |
| 20260505100048 | 8 | 317 | 3.2 | 8.0 | 0.00 | 0.00 | 0.00 | 53 | 1006.9 |
| 20260505094548 | 8 | 307 | 0.0 | 4.8 | 0.00 | 0.00 | 0.00 | 55 | 1006.4 |
| 20260505093046 | 8 | 265 | 1.6 | 9.7 | 0.00 | 0.00 | 0.00 | 53 | 1006.5 |
| 20260505091549 | 8 | 312 | 1.6 | 12.9 | 0.00 | 0.00 | 0.00 | 52 | 1006.6 |
| 20260505090050 | 8 | 307 | 4.8 | 12.9 | 0.00 | 0.00 | 0.00 | 55 | 1006.7 |
| 20260505084545 | 8 | 321 | 4.8 | 11.3 | 0.00 | 0.00 | 0.00 | 55 | 1006.0 |
| 20260505083048 | 9 | 64 | 4.8 | 14.5 | 0.00 | 0.00 | 0.00 | 52 | 1005.8 |
| 20260505081552 | 10 | 313 | 3.2 | 14.5 | 0.00 | 0.00 | 0.00 | 52 | 1005.1 |
| 20260505080049 | 10 | 115 | 1.6 | 12.9 | 0.00 | 0.00 | 0.00 | 55 | 1004.9 |
| 20260505074542 | 10 | 310 | 1.6 | 6.4 | 0.00 | 0.00 | 0.00 | 56 | 1004.7 |
| 20260505073051 | 11 | 324 | 1.6 | 12.9 | 0.00 | 0.00 | 0.00 | 54 | 1004.2 |
| 20260505071553 | 11 | 63 | 3.2 | 16.1 | 0.00 | 0.00 | 0.00 | 54 | 1003.8 |
| 20260505070047 | 10 | 322 | 6.4 | 9.7 | 0.00 | 0.00 | 0.00 | 59 | 1003.7 |
| 20260505064546 | 10 | 321 | 4.8 | 8.0 | 0.00 | 0.00 | 0.00 | 56 | 1003.6 |
| 20260505063044 | 11 | 325 | 0.0 | 1.6 | 0.00 | 0.00 | 0.00 | 53 | 1003.3 |
| 20260505061542 | 11 | 325 | 3.2 | 6.4 | 0.00 | 0.00 | 0.00 | 51 | 1003.4 |
| 20260505060044 | 12 | 325 | 4.8 | 8.0 | 0.00 | 0.00 | 0.00 | 49 | 1003.2 |
| 20260505054552 | 12 | 313 | 6.4 | 12.9 | 0.00 | 0.00 | 0.00 | 47 | 1002.8 |
| 20260505053057 | 13 | 325 | 6.4 | 9.7 | 0.00 | 0.00 | 0.00 | 45 | 1002.8 |
| 20260505051546 | 13 | 321 | 4.8 | 16.1 | 0.00 | 0.00 | 0.00 | 45 | 1002.7 |
| 20260505041546 | 14 | 338 | 8.0 | 17.7 | 0.00 | 0.00 | 0.00 | 41 | 1002.1 |
| 20260505040050 | 15 | 317 | 11.3 | 19.3 | 0.00 | 0.00 | 0.00 | 40 | 1001.9 |
| 20260505034543 | 15 | 340 | 12.9 | 22.5 | 0.00 | 0.00 | 0.00 | 39 | 1001.7 |
| 20260505033045 | 15 | 349 | 11.3 | 16.1 | 0.00 | 0.00 | 0.00 | 43 | 1001.6 |
| 20260505031548 | 16 | 325 | 4.8 | 8.0 | 0.00 | 0.00 | 0.00 | 46 | 1001.4 |
| 20260505030048 | 17 | 320 | 12.9 | 22.5 | 0.00 | 0.00 | 0.00 | 42 | 1001.3 |
| 20260505024546 | 17 | 316 | 11.3 | 16.1 | 0.00 | 0.00 | 0.00 | 42 | 1001.3 |
| 20260505023051 | 18 | 331 | 8.0 | 17.7 | 0.00 | 0.00 | 0.00 | 42 | 1000.5 |
| 20260505021543 | 19 | 350 | 19.3 | 30.6 | 0.00 | 0.00 | 0.00 | 41 | 1000.3 |
| 20260505020042 | 19 | 314 | 11.3 | 20.9 | 0.00 | 0.00 | 0.00 | 48 | 1000.3 |